Time;durP1;ratioP1;P1;durP2;ratioP2;P2;SDS_P1;SDS_P2;PMS_P1;PMS_P2;Temp;Humidity;BMP_temperature;BMP_pressure;BME280_temperature;BME280_humidity;BME280_pressure;Samples;Min_cycle;Max_cycle;Signal;HPM_P1;HPM_P2
2023/08/26 00:02:07;;;;;;;4.15;2.75;;;;;;;31.15;43.42;99350.09;5095028;28;20051;-69
2023/08/26 00:04:33;;;;;;;4.32;2.05;;;;;;;31.12;43.42;99347.75;5094724;28;20036;-69
2023/08/26 00:07:00;;;;;;;4.10;2.03;;;;;;;31.12;43.44;99355.81;5094904;28;20094;-69
2023/08/26 00:09:25;;;;;;;3.33;1.83;;;;;;;31.10;43.29;99357.81;5094840;28;20020;-69
2023/08/26 00:11:51;;;;;;;3.97;2.00;;;;;;;31.12;43.42;99361.22;5093633;28;20020;-68
2023/08/26 00:14:16;;;;;;;3.88;1.83;;;;;;;31.10;43.51;99358.69;5094757;28;20392;-68
2023/08/26 00:16:42;;;;;;;5.38;2.00;;;;;;;31.10;43.38;99357.81;5094667;28;20048;-69
2023/08/26 00:19:07;;;;;;;3.38;1.95;;;;;;;31.08;43.50;99334.59;5094771;28;20104;-68
2023/08/26 00:21:32;;;;;;;3.78;2.13;;;;;;;31.06;43.36;99333.06;5093666;28;20589;-68
2023/08/26 00:23:58;;;;;;;4.78;1.80;;;;;;;31.07;43.23;99338.28;5094366;28;20024;-68
2023/08/26 00:26:24;;;;;;;4.00;2.15;;;;;;;31.07;43.55;99343.69;5094737;28;20036;-69
2023/08/26 00:28:49;;;;;;;3.50;1.88;;;;;;;31.08;43.39;99337.28;5094778;28;20059;-69
2023/08/26 00:31:15;;;;;;;4.60;2.20;;;;;;;31.04;43.34;99333.22;5094802;28;20504;-70
2023/08/26 00:33:41;;;;;;;4.20;1.80;;;;;;;31.06;43.31;99335.75;5094603;28;20414;-68
2023/08/26 00:36:06;;;;;;;3.10;1.67;;;;;;;31.05;43.48;99328.69;5094432;28;20020;-69
2023/08/26 00:38:31;;;;;;;4.10;1.90;;;;;;;31.04;43.22;99324.31;5094159;28;20032;-69
2023/08/26 00:40:57;;;;;;;4.90;2.35;;;;;;;31.03;43.28;99326.16;5094385;28;20480;-69
2023/08/26 00:43:22;;;;;;;3.22;1.90;;;;;;;31.03;43.11;99326.16;5092995;28;20020;-69
2023/08/26 00:45:50;;;;;;;3.25;1.75;;;;;;;31.01;43.15;99320.09;5094267;28;20077;-70
2023/08/26 00:48:18;;;;;;;3.72;1.83;;;;;;;31.01;43.49;99316.53;5094242;28;20077;-69
2023/08/26 00:50:44;;;;;;;4.80;2.10;;;;;;;31.00;43.22;99325.63;5094289;28;20077;-69
2023/08/26 00:53:12;;;;;;;4.32;1.98;;;;;;;30.97;43.48;99313.31;5093571;28;21094;-70
2023/08/26 00:55:39;;;;;;;3.88;1.70;;;;;;;30.98;43.14;99325.78;5094099;28;20024;-69
2023/08/26 00:58:05;;;;;;;4.07;1.83;;;;;;;30.97;43.28;99332.19;5093842;28;20490;-69
2023/08/26 01:00:32;;;;;;;3.67;1.80;;;;;;;30.97;43.05;99321.41;5094255;28;20069;-70
2023/08/26 01:02:58;;;;;;;3.05;1.70;;;;;;;30.97;43.25;99320.59;5093729;28;20055;-69
2023/08/26 01:05:23;;;;;;;3.33;1.90;;;;;;;30.96;43.10;99319.72;5093941;28;20028;-69
2023/08/26 01:07:49;;;;;;;4.30;1.75;;;;;;;30.96;43.25;99311.66;5093508;28;20388;-69
2023/08/26 01:10:15;;;;;;;3.67;1.60;;;;;;;30.94;43.16;99303.72;5093854;28;20051;-69
2023/08/26 01:12:59;;;;;;;3.58;1.73;;;;;;;30.93;43.30;99309.25;5093695;28;20028;-69
2023/08/26 01:15:27;;;;;;;3.65;2.05;;;;;;;30.94;43.21;99305.59;5093375;28;20492;-68
2023/08/26 01:17:53;;;;;;;2.50;1.58;;;;;;;30.93;43.05;99306.56;5093703;28;20034;-68
2023/08/26 01:20:19;;;;;;;3.47;1.75;;;;;;;30.91;42.99;99300.50;5093587;28;20055;-69
2023/08/26 01:22:46;;;;;;;2.65;1.35;;;;;;;30.91;43.16;99300.50;5093141;28;20020;-68
2023/08/26 01:25:11;;;;;;;2.25;1.10;;;;;;;30.89;43.11;99297.16;5093529;28;20024;-69
2023/08/26 01:27:37;;;;;;;3.63;1.67;;;;;;;30.88;43.17;99285.53;5093531;28;20437;-70
2023/08/26 01:30:05;;;;;;;3.97;1.70;;;;;;;30.88;42.98;99271.22;5093524;28;20464;-69
2023/08/26 01:32:41;;;;;;;3.20;1.52;;;;;;;30.87;43.20;99266.81;5093127;28;20035;-69
2023/08/26 01:35:11;;;;;;;2.38;1.42;;;;;;;30.87;43.06;99269.50;5093277;28;20024;-69
2023/08/26 01:37:40;;;;;;;3.10;1.45;;;;;;;30.87;43.13;99278.44;5092966;28;20106;-70
2023/08/26 01:40:08;;;;;;;3.97;1.42;;;;;;;30.87;43.02;99293.75;5093201;28;20020;-70
2023/08/26 01:42:36;;;;;;;3.53;1.70;;;;;;;30.86;43.05;99286.69;5093080;28;20115;-70
2023/08/26 01:45:03;;;;;;;2.97;1.50;;;;;;;30.85;43.03;99272.41;5092838;28;20028;-68
2023/08/26 01:47:28;;;;;;;1.95;1.13;;;;;;;30.83;42.85;99274.38;5093142;28;20063;-69
2023/08/26 01:49:54;;;;;;;3.15;1.35;;;;;;;30.81;42.85;99274.53;5092932;28;20107;-69
2023/08/26 01:52:19;;;;;;;2.72;1.50;;;;;;;30.81;43.05;99271.84;5091310;28;20024;-68
2023/08/26 01:54:49;;;;;;;3.65;1.60;;;;;;;30.81;42.91;99258.38;5092338;28;20447;-69
2023/08/26 01:57:17;;;;;;;3.83;2.03;;;;;;;30.82;42.94;99261.94;5093048;28;20141;-69
2023/08/26 01:59:42;;;;;;;3.15;1.40;;;;;;;30.79;42.95;99260.41;5091416;28;20027;-68
2023/08/26 02:02:08;;;;;;;2.65;1.45;;;;;;;30.78;43.01;99257.88;5092628;28;20044;-69
2023/08/26 02:04:33;;;;;;;2.80;1.48;;;;;;;30.77;42.94;99257.03;5092773;28;20077;-69
2023/08/26 02:06:59;;;;;;;2.25;1.40;;;;;;;30.77;43.23;99253.50;5092430;28;20031;-70
2023/08/26 02:09:24;;;;;;;4.03;1.60;;;;;;;30.76;42.88;99260.75;5092960;28;20020;-68
2023/08/26 02:11:49;;;;;;;2.63;1.40;;;;;;;30.76;43.15;99260.75;5092366;28;20025;-70
2023/08/26 02:14:15;;;;;;;3.75;1.48;;;;;;;30.74;43.01;99251.97;5091042;28;20016;-68
2023/08/26 02:16:40;;;;;;;3.10;1.60;;;;;;;30.75;42.78;99242.88;5092629;28;20103;-69
2023/08/26 02:19:06;;;;;;;2.90;1.23;;;;;;;30.74;43.02;99237.69;5092583;28;20035;-69
2023/08/26 02:21:31;;;;;;;4.15;1.40;;;;;;;30.73;42.95;99244.91;5092184;28;20043;-69
2023/08/26 02:23:57;;;;;;;2.75;1.40;;;;;;;30.73;42.98;99252.97;5092105;28;20107;-70
2023/08/26 02:26:22;;;;;;;2.10;1.30;;;;;;;30.74;42.73;99273.50;5092565;28;20073;-69
2023/08/26 02:28:47;;;;;;;2.20;1.10;;;;;;;30.72;42.98;99264.78;5092475;28;20028;-69
2023/08/26 02:31:13;;;;;;;2.78;1.33;;;;;;;30.73;42.87;99266.44;5092331;28;20048;-70
2023/08/26 02:33:38;;;;;;;2.95;1.30;;;;;;;30.73;42.93;99261.06;5092036;28;20039;-70
2023/08/26 02:36:04;;;;;;;2.97;1.55;;;;;;;30.72;42.85;99264.78;5092134;28;20085;-70
2023/08/26 02:38:31;;;;;;;2.88;1.25;;;;;;;30.70;42.73;99256.03;5091027;28;20020;-69
2023/08/26 02:40:57;;;;;;;3.08;1.40;;;;;;;30.71;42.51;99262.22;5092173;28;20389;-68
2023/08/26 02:43:22;;;;;;;3.80;1.40;;;;;;;30.70;42.65;99256.03;5092173;28;20028;-69
2023/08/26 02:45:58;;;;;;;2.03;1.20;;;;;;;30.70;42.83;99252.47;5092249;28;20050;-69
2023/08/26 02:48:25;;;;;;;3.30;1.67;;;;;;;30.70;42.69;99249.78;5092125;28;20506;-69
2023/08/26 02:50:58;;;;;;;3.05;1.52;;;;;;;30.69;42.76;99251.63;5091859;28;20105;-68
2023/08/26 02:53:28;;;;;;;2.60;1.40;;;;;;;30.67;43.01;99229.38;5092307;28;20110;-69
2023/08/26 02:55:54;;;;;;;2.95;1.38;;;;;;;30.67;42.71;99207.81;5092072;28;20521;-70
2023/08/26 02:58:20;;;;;;;4.18;1.40;;;;;;;30.67;42.70;99218.59;5092246;28;20383;-69
2023/08/26 03:00:46;;;;;;;2.45;1.20;;;;;;;30.65;42.65;99226.00;5090797;28;20052;-69
2023/08/26 03:03:12;;;;;;;3.40;1.50;;;;;;;30.65;42.94;99215.25;5091787;28;20044;-69
2023/08/26 03:05:38;;;;;;;4.03;1.40;;;;;;;30.64;42.43;99182.06;5092539;28;20065;-69
2023/08/26 03:08:03;;;;;;;3.53;1.15;;;;;;;30.63;42.98;99184.91;5096441;28;20031;-68
2023/08/26 03:10:29;;;;;;;3.10;1.20;;;;;;;30.63;42.63;99206.47;5096238;28;20024;-69
2023/08/26 03:12:54;;;;;;;2.97;1.33;;;;;;;30.64;42.89;99192.00;5095904;28;20032;-69
2023/08/26 03:15:20;;;;;;;4.50;1.42;;;;;;;30.62;42.85;99204.78;5095929;28;20115;-68
2023/08/26 03:17:46;;;;;;;2.58;1.30;;;;;;;30.61;42.89;99192.34;5096021;28;20047;-68
2023/08/26 03:20:12;;;;;;;3.47;1.30;;;;;;;30.60;42.83;99178.00;5095610;28;20028;-70
2023/08/26 03:22:37;;;;;;;3.55;1.08;;;;;;;30.60;42.60;99182.56;5095944;28;20470;-69
2023/08/26 03:25:04;;;;;;;2.55;1.15;;;;;;;30.61;42.63;99181.56;5095600;28;20059;-69
2023/08/26 03:27:29;;;;;;;2.58;1.40;;;;;;;30.61;42.67;99184.25;5095938;28;20391;-71
2023/08/26 03:29:55;;;;;;;2.90;1.40;;;;;;;30.60;42.49;99202.25;5095891;28;20028;-69
2023/08/26 03:32:20;;;;;;;3.42;1.50;;;;;;;30.60;42.58;99206.81;5095228;28;20062;-68
2023/08/26 03:34:46;;;;;;;2.40;1.30;;;;;;;30.58;42.68;99187.25;5095477;28;20532;-70
2023/08/26 03:37:11;;;;;;;3.38;1.27;;;;;;;30.58;42.72;99190.81;5095595;28;20039;-69
2023/08/26 03:39:36;;;;;;;3.35;1.27;;;;;;;30.59;42.72;99207.81;5095502;28;20059;-70
2023/08/26 03:42:02;;;;;;;2.30;1.10;;;;;;;30.58;42.50;99208.81;5095524;28;20047;-69
2023/08/26 03:44:27;;;;;;;2.85;1.38;;;;;;;30.58;42.61;99204.28;5095397;28;20385;-69
2023/08/26 03:46:53;;;;;;;2.65;1.13;;;;;;;30.58;42.61;99235.72;5095007;28;20020;-69
2023/08/26 03:49:18;;;;;;;3.55;1.38;;;;;;;30.58;42.67;99257.25;5095287;28;20047;-69
2023/08/26 03:51:43;;;;;;;2.92;1.30;;;;;;;30.55;42.67;99280.81;5095356;28;20365;-70
2023/08/26 03:54:09;;;;;;;2.20;1.10;;;;;;;30.54;42.74;99300.69;5095281;28;20024;-71
2023/08/26 03:56:34;;;;;;;2.17;1.00;;;;;;;30.54;42.33;99289.91;5093880;28;20024;-71
2023/08/26 03:59:00;;;;;;;2.13;1.20;;;;;;;30.55;42.58;99264.66;5094938;28;20031;-69
2023/08/26 04:01:25;;;;;;;2.40;1.20;;;;;;;30.53;42.84;99202.06;5094870;28;20028;-69
2023/08/26 04:03:52;;;;;;;2.67;1.30;;;;;;;30.52;42.61;99186.94;5095367;28;20434;-69
2023/08/26 04:06:17;;;;;;;3.08;1.38;;;;;;;30.51;42.72;99185.22;5095231;28;20226;-70
2023/08/26 04:08:44;;;;;;;2.85;1.38;;;;;;;30.54;42.41;99160.69;5095134;28;20476;-69
2023/08/26 04:11:10;;;;;;;3.50;1.30;;;;;;;30.51;42.50;99176.31;5095076;28;20468;-69
2023/08/26 04:13:36;;;;;;;3.45;1.40;;;;;;;30.54;42.57;99208.28;5094665;28;20024;-69
2023/08/26 04:16:03;;;;;;;2.40;1.20;;;;;;;30.52;42.58;99245.31;5094699;28;20473;-69
2023/08/26 04:18:29;;;;;;;2.35;1.20;;;;;;;30.49;42.31;99232.16;5094716;28;20099;-69
2023/08/26 04:20:55;;;;;;;3.40;1.30;;;;;;;30.49;42.53;99200.72;5094604;28;20028;-69
2023/08/26 04:23:21;;;;;;;2.63;1.30;;;;;;;30.49;42.41;99189.94;5093257;28;20024;-70
2023/08/26 04:25:46;;;;;;;3.22;1.30;;;;;;;30.49;42.72;99189.09;5094352;28;20035;-70
2023/08/26 04:28:12;;;;;;;2.65;1.13;;;;;;;30.47;42.57;99208.13;5094783;28;20475;-69
2023/08/26 04:30:37;;;;;;;2.42;1.15;;;;;;;30.47;42.66;99213.50;5094277;28;20020;-71
2023/08/26 04:33:06;;;;;;;2.42;1.00;;;;;;;30.46;42.55;99217.16;5094465;28;20520;-71
2023/08/26 04:35:33;;;;;;;3.28;1.30;;;;;;;30.45;42.76;99215.50;5094485;28;20039;-69
2023/08/26 04:37:59;;;;;;;4.40;1.38;;;;;;;30.44;42.64;99223.75;5094262;28;20016;-69
2023/08/26 04:40:25;;;;;;;2.38;1.08;;;;;;;30.42;42.59;99227.41;5094270;28;20047;-69
2023/08/26 04:42:53;;;;;;;3.20;1.50;;;;;;;30.43;42.64;99220.19;5094180;28;20050;-69
2023/08/26 04:45:19;;;;;;;3.03;1.25;;;;;;;30.41;42.58;99214.97;5093796;28;20434;-70
2023/08/26 04:47:46;;;;;;;3.58;1.20;;;;;;;30.41;42.64;99224.91;5094256;28;20020;-69
2023/08/26 04:50:12;;;;;;;2.90;1.30;;;;;;;30.40;42.53;99229.44;5094196;28;20016;-69
2023/08/26 04:52:42;;;;;;;4.55;1.60;;;;;;;30.40;42.47;99242.03;5092833;28;20108;-69
2023/08/26 04:55:08;;;;;;;2.28;1.10;;;;;;;30.39;42.71;99237.66;5094032;28;20020;-70
2023/08/26 04:57:33;;;;;;;2.00;0.95;;;;;;;30.39;42.53;99226.91;5094133;28;20023;-70
2023/08/26 04:59:59;;;;;;;2.20;1.20;;;;;;;30.38;42.76;99246.75;5093699;28;20079;-70
2023/08/26 05:02:25;;;;;;;4.00;1.33;;;;;;;30.38;42.53;99257.53;5093637;28;20046;-69
2023/08/26 05:04:50;;;;;;;2.17;1.00;;;;;;;30.37;42.66;99258.53;5093754;28;20024;-70
2023/08/26 05:07:16;;;;;;;2.65;1.30;;;;;;;30.36;42.73;99248.78;5093928;28;20103;-69
2023/08/26 05:09:42;;;;;;;3.47;1.20;;;;;;;30.33;42.86;99244.56;5092458;28;20024;-69
2023/08/26 05:12:07;;;;;;;2.03;1.10;;;;;;;30.36;42.51;99244.22;5093835;28;20035;-69
2023/08/26 05:14:33;;;;;;;3.78;1.20;;;;;;;30.35;42.58;99247.09;5093112;28;20048;-70
2023/08/26 05:16:58;;;;;;;3.10;1.00;;;;;;;30.33;42.73;99251.78;5093616;28;20027;-70
2023/08/26 05:19:23;;;;;;;2.35;1.00;;;;;;;30.33;42.74;99259.84;5093606;28;20392;-70
2023/08/26 05:21:49;;;;;;;3.33;1.42;;;;;;;30.31;42.92;99264.56;5093730;28;20365;-69
2023/08/26 05:24:14;;;;;;;2.78;0.90;;;;;;;30.30;42.95;99281.72;5093182;28;20538;-70
2023/08/26 05:26:42;;;;;;;3.20;1.10;;;;;;;30.30;42.84;99281.72;5093674;28;20115;-70
2023/08/26 05:29:08;;;;;;;2.83;1.25;;;;;;;30.29;42.51;99302.38;5092546;28;20020;-69
2023/08/26 05:31:34;;;;;;;2.10;0.90;;;;;;;30.30;42.77;99308.63;5092417;28;20027;-70
2023/08/26 05:33:59;;;;;;;1.95;1.08;;;;;;;30.28;43.01;99316.84;5093446;28;20024;-69
2023/08/26 05:36:25;;;;;;;2.70;1.15;;;;;;;30.27;42.61;99310.59;5093210;28;20024;-69
2023/08/26 05:38:50;;;;;;;2.90;1.17;;;;;;;30.28;42.63;99309.59;5092210;28;20035;-70
2023/08/26 05:41:16;;;;;;;3.05;1.40;;;;;;;30.27;42.88;99307.91;5093192;28;20016;-69
2023/08/26 05:43:41;;;;;;;3.25;1.13;;;;;;;30.26;42.60;99322.38;5092817;28;20531;-69
2023/08/26 05:46:07;;;;;;;2.75;1.30;;;;;;;30.26;42.49;99330.47;5093082;28;20028;-70
2023/08/26 05:48:32;;;;;;;2.55;1.05;;;;;;;30.24;42.60;99327.09;5093082;28;20020;-70
2023/08/26 05:50:58;;;;;;;2.85;1.30;;;;;;;30.25;42.90;99318.00;5093031;28;20024;-69
2023/08/26 05:53:25;;;;;;;1.88;0.88;;;;;;;30.24;42.73;99313.63;5093186;28;20067;-70
2023/08/26 05:55:50;;;;;;;3.10;1.08;;;;;;;30.25;42.90;99301.88;5092962;28;20492;-69
2023/08/26 05:58:15;;;;;;;2.83;1.05;;;;;;;30.23;42.80;99314.66;5092771;28;20059;-69
2023/08/26 06:00:41;;;;;;;2.30;0.93;;;;;;;30.23;42.79;99311.09;5092935;28;20052;-70
2023/08/26 06:03:06;;;;;;;1.65;1.00;;;;;;;30.22;42.68;99286.03;5092674;28;20048;-70
2023/08/26 06:05:31;;;;;;;2.13;1.10;;;;;;;30.20;42.51;99298.81;5092660;28;20030;-68
2023/08/26 06:07:57;;;;;;;3.28;1.30;;;;;;;30.21;42.71;99292.41;5091472;28;20027;-70
2023/08/26 06:10:23;;;;;;;2.25;0.80;;;;;;;30.20;42.58;99274.59;5092567;28;20020;-70
2023/08/26 06:12:48;;;;;;;2.58;0.90;;;;;;;30.18;42.68;99252.38;5092307;28;20070;-69
2023/08/26 06:15:14;;;;;;;2.38;0.90;;;;;;;30.18;42.63;99244.31;5092618;28;20519;-70
2023/08/26 06:17:41;;;;;;;2.75;1.20;;;;;;;30.17;42.65;99231.88;5092559;28;20020;-68
2023/08/26 06:20:08;;;;;;;3.25;1.23;;;;;;;30.19;42.55;99221.78;5092589;28;20024;-70
2023/08/26 06:22:33;;;;;;;2.47;1.00;;;;;;;30.17;42.57;99207.66;5092514;28;20032;-69
2023/08/26 06:24:59;;;;;;;1.85;0.85;;;;;;;30.16;42.88;99205.94;5092310;28;20106;-68
2023/08/26 06:27:27;;;;;;;2.45;1.20;;;;;;;30.17;42.51;99217.56;5107885;28;20031;-68
2023/08/26 06:29:53;;;;;;;2.90;1.00;;;;;;;30.16;42.54;99238.22;5092323;28;20020;-69
2023/08/26 06:32:20;;;;;;;1.77;1.02;;;;;;;30.15;42.90;99250.00;5092422;28;20047;-70
2023/08/26 06:34:46;;;;;;;4.05;1.17;;;;;;;30.13;42.88;99278.91;5092367;28;20028;-69
2023/08/26 06:37:12;;;;;;;2.53;1.20;;;;;;;30.12;42.61;99286.13;5092130;28;20088;-70
2023/08/26 06:39:37;;;;;;;2.83;0.82;;;;;;;30.12;42.61;99286.13;5092226;28;20110;-69
2023/08/26 06:42:03;;;;;;;3.80;1.42;;;;;;;30.11;42.89;99254.84;5092058;28;20027;-70
2023/08/26 06:44:28;;;;;;;3.63;1.02;;;;;;;30.09;42.67;99238.03;5092252;28;20043;-70
2023/08/26 06:46:54;;;;;;;2.20;0.95;;;;;;;30.10;42.91;99233.47;5092401;28;20028;-70
2023/08/26 06:49:19;;;;;;;2.08;0.77;;;;;;;30.12;42.58;99224.25;5092116;28;20423;-71
2023/08/26 06:51:45;;;;;;;2.50;1.20;;;;;;;30.11;42.60;99240.59;5092031;28;20017;-70
2023/08/26 06:54:10;;;;;;;2.33;1.13;;;;;;;30.09;42.64;99229.13;5092071;28;20502;-69
2023/08/26 06:56:35;;;;;;;2.38;0.93;;;;;;;30.11;42.47;99229.81;5091829;28;20028;-69
2023/08/26 06:59:02;;;;;;;1.73;0.85;;;;;;;30.12;42.59;99228.81;5091898;28;20024;-70
2023/08/26 07:01:27;;;;;;;4.32;1.05;;;;;;;30.09;42.42;99226.41;5091939;28;20589;-68
2023/08/26 07:03:53;;;;;;;1.95;1.08;;;;;;;30.08;42.80;99232.78;5092075;28;20027;-69
2023/08/26 07:06:18;;;;;;;1.83;0.93;;;;;;;30.06;42.69;99242.88;5092147;28;20085;-69
2023/08/26 07:08:44;;;;;;;2.15;0.98;;;;;;;30.05;42.79;99247.38;5092175;28;20544;-71
2023/08/26 07:11:09;;;;;;;2.22;0.80;;;;;;;30.04;42.93;99261.00;5091533;28;20024;-69
2023/08/26 07:13:35;;;;;;;1.52;0.82;;;;;;;30.02;42.58;99259.31;5091658;28;20047;-69
2023/08/26 07:16:00;;;;;;;2.33;0.90;;;;;;;30.01;42.60;99246.00;5090735;28;20020;-71
2023/08/26 07:18:25;;;;;;;2.60;1.15;;;;;;;30.00;42.73;99250.56;5091910;28;20476;-70
2023/08/26 07:20:51;;;;;;;2.13;0.85;;;;;;;30.00;42.49;99261.31;5092023;28;20145;-69
2023/08/26 07:23:16;;;;;;;2.08;0.90;;;;;;;30.00;42.89;99242.50;5091775;28;20065;-70
2023/08/26 07:25:42;;;;;;;2.50;1.00;;;;;;;29.98;42.80;99228.34;5091554;28;20024;-70
2023/08/26 07:28:07;;;;;;;2.58;0.90;;;;;;;29.96;42.72;99222.28;5091853;28;20031;-70
2023/08/26 07:30:33;;;;;;;2.67;0.95;;;;;;;29.98;42.77;99220.28;5091567;28;20020;-70
2023/08/26 07:32:58;;;;;;;1.73;0.90;;;;;;;30.00;42.53;99233.56;5091646;28;20020;-70
2023/08/26 07:35:24;;;;;;;2.67;1.00;;;;;;;29.98;42.75;99244.47;5092041;28;20032;-69
2023/08/26 07:37:49;;;;;;;1.58;0.80;;;;;;;29.97;42.71;99258.13;5091676;28;20048;-70
2023/08/26 07:40:16;;;;;;;1.17;0.63;;;;;;;29.97;42.66;99261.63;5091638;28;20020;-69
2023/08/26 07:42:43;;;;;;;2.17;0.90;;;;;;;29.95;42.60;99252.88;5091854;28;20024;-69
2023/08/26 07:45:09;;;;;;;2.95;1.08;;;;;;;29.95;42.80;99242.13;5091702;28;20553;-69
2023/08/26 07:47:35;;;;;;;1.83;0.90;;;;;;;29.95;42.55;99234.06;5091878;28;20024;-70
2023/08/26 07:50:01;;;;;;;1.15;0.80;;;;;;;29.95;42.84;99225.13;5091906;28;20145;-69
2023/08/26 07:52:26;;;;;;;2.05;1.17;;;;;;;29.94;42.51;99213.53;5093408;28;20055;-69
2023/08/26 07:54:52;;;;;;;2.85;1.02;;;;;;;29.96;42.54;99205.28;5095075;28;20497;-70
2023/08/26 07:57:17;;;;;;;2.28;0.88;;;;;;;29.93;42.56;99214.56;5095512;28;20072;-70
2023/08/26 07:59:42;;;;;;;2.10;0.90;;;;;;;29.91;42.51;99224.59;5095254;28;20024;-70
2023/08/26 08:02:08;;;;;;;1.63;0.90;;;;;;;29.92;42.51;99220.91;5095125;28;20119;-71
2023/08/26 08:04:33;;;;;;;1.88;0.90;;;;;;;29.92;42.75;99210.16;5095194;28;20490;-71
2023/08/26 08:06:58;;;;;;;2.42;0.90;;;;;;;29.89;42.53;99205.09;5095257;28;20081;-70
2023/08/26 08:09:24;;;;;;;1.52;0.80;;;;;;;29.88;42.83;99231.16;5093443;28;20110;-70
2023/08/26 08:11:49;;;;;;;2.28;1.00;;;;;;;29.87;42.82;99242.06;5094924;28;20028;-70
2023/08/26 08:14:15;;;;;;;2.13;0.90;;;;;;;29.87;42.63;99229.47;5093439;28;20078;-69
2023/08/26 08:16:40;;;;;;;2.53;0.90;;;;;;;29.88;42.55;99241.06;5094943;28;20028;-71
2023/08/26 08:19:06;;;;;;;1.70;0.80;;;;;;;29.88;42.81;99243.75;5095001;28;20041;-71
2023/08/26 08:21:31;;;;;;;1.27;0.80;;;;;;;29.87;42.80;99244.75;5093541;28;20040;-70
2023/08/26 08:23:57;;;;;;;2.25;0.82;;;;;;;29.85;42.77;99247.63;5094255;28;20035;-70
2023/08/26 08:26:22;;;;;;;2.70;0.85;;;;;;;29.88;42.69;99243.75;5094523;28;20445;-70
2023/08/26 08:28:47;;;;;;;2.00;1.00;;;;;;;29.88;42.76;99257.22;5094837;28;20021;-69
2023/08/26 08:31:13;;;;;;;2.00;0.70;;;;;;;29.84;42.54;99261.22;5094715;28;20028;-70
2023/08/26 08:33:38;;;;;;;1.20;0.68;;;;;;;29.84;42.39;99271.97;5094462;28;20059;-69
2023/08/26 08:36:04;;;;;;;2.67;1.23;;;;;;;29.85;42.62;99268.28;5094339;28;20032;-70
2023/08/26 08:38:29;;;;;;;1.63;0.80;;;;;;;29.84;42.72;99245.06;5094094;28;20054;-70
2023/08/26 08:40:55;;;;;;;1.70;0.80;;;;;;;29.86;42.62;99253.81;5094422;28;20024;-70
2023/08/26 08:43:21;;;;;;;2.15;0.82;;;;;;;29.86;42.67;99248.44;5094171;28;20031;-70
2023/08/26 08:45:49;;;;;;;3.15;1.00;;;;;;;29.86;42.31;99246.59;5094206;28;20436;-71
2023/08/26 08:48:17;;;;;;;2.63;0.90;;;;;;;29.83;42.21;99248.78;5094321;28;20032;-71
2023/08/26 08:50:42;;;;;;;2.42;0.88;;;;;;;29.82;42.37;99252.47;5094165;28;20024;-70
2023/08/26 08:53:08;;;;;;;1.70;0.80;;;;;;;29.82;42.38;99252.47;5093879;28;20073;-69
2023/08/26 08:55:34;;;;;;;2.13;0.90;;;;;;;29.83;42.55;99243.38;5094091;28;20471;-70
2023/08/26 08:58:00;;;;;;;1.42;0.80;;;;;;;29.82;42.43;99247.09;5094197;28;20400;-70
2023/08/26 09:00:27;;;;;;;1.85;0.73;;;;;;;29.83;42.31;99254.16;5094095;28;20028;-71
2023/08/26 09:02:55;;;;;;;1.30;0.80;;;;;;;29.82;42.20;99247.09;5093169;28;20051;-70
2023/08/26 09:05:22;;;;;;;1.75;0.80;;;;;;;29.81;42.33;99246.22;5093510;28;20078;-70
2023/08/26 09:07:49;;;;;;;1.70;0.90;;;;;;;29.80;42.33;99251.75;5093643;28;20038;-70
2023/08/26 09:10:15;;;;;;;1.88;0.80;;;;;;;29.80;42.56;99238.31;5093979;28;20103;-71
2023/08/26 09:12:41;;;;;;;1.90;0.80;;;;;;;29.83;42.38;99238.00;5093583;28;20047;-71
2023/08/26 09:15:07;;;;;;;1.30;0.90;;;;;;;29.82;42.51;99239.03;5093683;28;20059;-70
2023/08/26 09:17:32;;;;;;;1.63;0.70;;;;;;;29.81;42.09;99234.63;5093850;28;20035;-70
2023/08/26 09:20:00;;;;;;;2.00;0.80;;;;;;;29.80;42.45;99238.31;5093761;28;20057;-70
2023/08/26 09:22:30;;;;;;;1.90;0.80;;;;;;;29.80;42.14;99232.94;5093036;28;20028;-70
2023/08/26 09:24:57;;;;;;;1.75;0.70;;;;;;;29.82;42.34;99236.31;5093486;28;20073;-69
2023/08/26 09:27:22;;;;;;;2.03;0.90;;;;;;;29.81;42.20;99234.63;5093382;28;20757;-70
2023/08/26 09:29:48;;;;;;;1.40;0.80;;;;;;;29.78;42.46;99234.94;5093531;28;20032;-69
2023/08/26 09:32:13;;;;;;;1.85;1.00;;;;;;;29.79;42.33;99242.00;5093351;28;20395;-70
2023/08/26 09:34:38;;;;;;;1.95;0.70;;;;;;;29.79;42.34;99239.31;5093351;28;20024;-70
2023/08/26 09:37:07;;;;;;;1.85;0.95;;;;;;;29.79;42.32;99231.25;5092957;28;20081;-70
2023/08/26 09:39:33;;;;;;;1.67;0.80;;;;;;;29.77;42.22;99231.41;5093367;28;20073;-70
2023/08/26 09:41:59;;;;;;;1.02;0.68;;;;;;;29.78;42.50;99240.31;5093172;28;20043;-69
2023/08/26 09:44:26;;;;;;;1.00;0.65;;;;;;;29.78;42.30;99240.31;5093055;28;20024;-71
2023/08/26 09:46:55;;;;;;;1.95;0.73;;;;;;;29.79;42.11;99225.88;5093241;28;20031;-70
2023/08/26 09:49:20;;;;;;;1.83;0.80;;;;;;;29.79;42.04;99237.47;5092835;28;20544;-69
2023/08/26 09:51:51;;;;;;;1.23;0.60;;;;;;;29.78;42.01;99245.69;5093208;28;20032;-71
2023/08/26 09:54:17;;;;;;;2.58;1.00;;;;;;;29.77;42.03;99239.47;5092903;28;20028;-71
2023/08/26 09:56:45;;;;;;;1.00;0.70;;;;;;;29.79;41.94;99247.38;5093114;28;20054;-71
2023/08/26 09:59:11;;;;;;;1.98;1.00;;;;;;;29.77;42.29;99231.41;5093097;28;20039;-70
2023/08/26 10:01:37;;;;;;;1.50;0.90;;;;;;;29.77;42.16;99227.88;5092713;28;20052;-70
2023/08/26 10:04:10;;;;;;;2.83;0.98;;;;;;;29.75;42.12;99230.72;5092322;28;20490;-70
2023/08/26 10:06:42;;;;;;;1.75;0.77;;;;;;;29.73;42.29;99228.19;5092793;28;20039;-70
2023/08/26 10:09:26;;;;;;;2.53;0.93;;;;;;;29.73;42.14;99222.81;5092807;28;20498;-70
2023/08/26 10:11:55;;;;;;;2.15;0.90;;;;;;;29.73;42.09;99232.75;5092780;28;20020;-69
2023/08/26 10:14:23;;;;;;;1.67;0.73;;;;;;;29.71;41.90;99235.56;5090851;28;20077;-69
2023/08/26 10:16:50;;;;;;;1.65;0.82;;;;;;;29.71;42.07;99240.97;5092796;28;20058;-70
2023/08/26 10:19:15;;;;;;;1.80;0.80;;;;;;;29.72;41.84;99237.25;5092308;28;20069;-70
2023/08/26 10:21:41;;;;;;;1.67;0.90;;;;;;;29.71;41.90;99238.25;5092529;28;20024;-71
2023/08/26 10:24:07;;;;;;;1.95;0.80;;;;;;;29.69;42.36;99237.56;5092451;28;20035;-70
2023/08/26 10:26:33;;;;;;;2.05;0.80;;;;;;;29.65;42.23;99241.59;5092502;28;20055;-70
2023/08/26 10:28:58;;;;;;;1.33;0.73;;;;;;;29.65;42.28;99244.28;5092481;28;20062;-70
2023/08/26 10:31:36;;;;;;;2.75;1.02;;;;;;;29.67;42.20;99234.19;5092648;28;20066;-71
2023/08/26 10:34:08;;;;;;;2.05;0.85;;;;;;;29.67;42.13;99223.44;5091964;28;20391;-71
2023/08/26 10:36:38;;;;;;;2.25;0.88;;;;;;;29.66;41.91;99221.75;5092379;28;20038;-70
2023/08/26 10:39:11;;;;;;;2.60;0.90;;;;;;;29.64;42.35;99223.78;5092266;28;20021;-70
2023/08/26 10:41:36;;;;;;;2.05;0.73;;;;;;;29.63;42.30;99222.06;5092354;28;20099;-70
2023/08/26 10:44:03;;;;;;;1.65;0.90;;;;;;;29.64;42.16;99217.53;5092154;28;20059;-70
2023/08/26 10:46:53;;;;;;;2.58;1.00;;;;;;;29.60;42.09;99217.84;5092047;28;20040;-70
2023/08/26 10:49:22;;;;;;;0.93;0.63;;;;;;;29.62;41.92;99212.31;5091965;28;20040;-70
2023/08/26 10:52:06;;;;;;;2.38;1.00;;;;;;;29.60;42.33;99206.25;5092191;28;20099;-71
2023/08/26 10:54:32;;;;;;;1.48;0.82;;;;;;;29.61;42.00;99207.94;5090810;28;20134;-70
2023/08/26 10:57:02;;;;;;;2.22;0.85;;;;;;;29.61;41.92;99202.56;5091992;28;20028;-71
2023/08/26 10:59:48;;;;;;;1.17;0.77;;;;;;;29.61;42.02;99199.88;5092213;28;20468;-71
2023/08/26 11:02:13;;;;;;;1.55;0.80;;;;;;;29.61;42.02;99197.19;5091116;28;20047;-71
2023/08/26 11:04:43;;;;;;;1.90;0.82;;;;;;;29.60;42.37;99193.63;5091908;28;20107;-71
2023/08/26 11:07:19;;;;;;;2.55;0.90;;;;;;;29.63;42.04;99192.47;5091846;28;20077;-70
2023/08/26 11:09:45;;;;;;;1.80;0.90;;;;;;;29.61;42.29;99181.06;5092083;28;20099;-70
2023/08/26 11:12:27;;;;;;;2.15;0.88;;;;;;;29.61;42.01;99183.75;5092039;28;20036;-71
2023/08/26 11:15:05;;;;;;;1.98;0.80;;;;;;;29.65;42.25;99178.88;5091696;28;20107;-70
2023/08/26 11:17:32;;;;;;;1.85;0.77;;;;;;;29.67;41.81;99168.84;5091792;28;20024;-71
2023/08/26 11:19:57;;;;;;;3.78;0.77;;;;;;;29.64;41.82;99175.38;5092257;28;20039;-70
2023/08/26 11:22:26;;;;;;;1.88;0.80;;;;;;;29.64;41.85;99183.44;5092004;28;20028;-70
2023/08/26 11:24:52;;;;;;;1.63;0.70;;;;;;;29.64;41.92;99180.75;5092281;28;20024;-69
2023/08/26 11:27:18;;;;;;;1.52;0.70;;;;;;;29.65;41.93;99182.44;5093870;28;20377;-70
2023/08/26 11:29:43;;;;;;;0.90;0.70;;;;;;;29.66;41.76;99178.75;5095895;28;20106;-70
2023/08/26 11:32:09;;;;;;;1.83;0.80;;;;;;;29.65;42.15;99176.19;5095449;28;20021;-70